createdAt,value
2017-06-29T00:00:23.423Z,0
2017-06-29T00:01:32.871Z,0
2017-06-29T00:02:41.937Z,0
2017-06-29T00:03:51.279Z,0
2017-06-29T00:05:00.553Z,0
2017-06-29T00:06:10.026Z,0
2017-06-29T00:07:19.237Z,0
2017-06-29T00:08:28.424Z,0
2017-06-29T00:09:37.836Z,0
2017-06-29T00:10:46.987Z,0
2017-06-29T00:11:56.456Z,0
2017-06-29T00:13:05.587Z,0
2017-06-29T00:14:14.589Z,0
2017-06-29T00:15:23.841Z,0
2017-06-29T00:16:32.798Z,0
2017-06-29T00:17:42.305Z,0
2017-06-29T00:18:51.358Z,0
2017-06-29T00:20:01.204Z,0
2017-06-29T00:21:10.474Z,0
2017-06-29T00:22:19.649Z,0
2017-06-29T00:23:29.344Z,0
2017-06-29T00:24:38.708Z,0
2017-06-29T00:25:47.950Z,0
2017-06-29T00:26:56.994Z,0
2017-06-29T00:28:05.946Z,0
2017-06-29T00:29:15.206Z,0
2017-06-29T00:30:24.155Z,0
2017-06-29T00:31:33.106Z,0
2017-06-29T00:32:42.063Z,0
2017-06-29T00:33:51.013Z,0
2017-06-29T00:35:00.211Z,0
2017-06-29T00:36:09.487Z,0
2017-06-29T00:37:18.438Z,0
2017-06-29T00:38:27.389Z,0
2017-06-29T00:39:36.341Z,0
2017-06-29T00:40:45.602Z,0
2017-06-29T00:41:54.546Z,0
2017-06-29T00:43:03.506Z,0
2017-06-29T00:44:12.468Z,0
2017-06-29T00:45:21.415Z,0
2017-06-29T00:46:30.746Z,0
2017-06-29T00:47:39.698Z,0
2017-06-29T00:48:48.671Z,0
2017-06-29T00:49:57.627Z,0
2017-06-29T00:51:06.582Z,0
2017-06-29T00:52:15.788Z,0
2017-06-29T00:53:24.738Z,0
2017-06-29T00:54:33.694Z,0
2017-06-29T00:55:42.642Z,0
2017-06-29T00:56:51.598Z,0
2017-06-29T00:58:01.123Z,0
2017-06-29T00:59:10.158Z,0
2017-06-29T01:00:19.109Z,0
2017-06-29T01:01:28.071Z,0
2017-06-29T01:02:37.028Z,0
2017-06-29T01:03:46.325Z,0
2017-06-29T01:04:55.285Z,0
2017-06-29T01:06:04.312Z,0
2017-06-29T01:07:13.597Z,0
2017-06-29T01:08:22.559Z,0
2017-06-29T01:09:31.821Z,0
2017-06-29T01:10:40.769Z,0
2017-06-29T01:11:49.722Z,0
2017-06-29T01:12:58.672Z,0
2017-06-29T01:14:07.631Z,0
2017-06-29T01:15:16.884Z,0
2017-06-29T01:16:25.836Z,0
2017-06-29T01:17:34.880Z,0
2017-06-29T01:18:43.825Z,0
2017-06-29T01:19:52.780Z,0
2017-06-29T01:21:02.040Z,0
2017-06-29T01:22:10.994Z,0
2017-06-29T01:23:19.960Z,0
2017-06-29T01:24:28.913Z,0
2017-06-29T01:25:37.863Z,0
2017-06-29T01:26:47.151Z,0
2017-06-29T01:27:56.105Z,0
2017-06-29T01:29:05.063Z,0
2017-06-29T01:30:14.096Z,0
2017-06-29T01:31:23.053Z,0
2017-06-29T01:32:32.261Z,0
2017-06-29T01:33:41.213Z,0
2017-06-29T01:34:50.162Z,0
2017-06-29T01:35:59.116Z,0
2017-06-29T01:37:08.080Z,0
2017-06-29T01:38:17.284Z,0
2017-06-29T01:39:26.241Z,0
2017-06-29T01:40:35.188Z,0
2017-06-29T01:41:44.148Z,0
2017-06-29T01:42:53.104Z,0
2017-06-29T01:44:02.458Z,0
2017-06-29T01:45:11.738Z,0
2017-06-29T01:46:20.697Z,0
2017-06-29T01:47:29.655Z,0
2017-06-29T01:48:38.935Z,0
2017-06-29T01:49:48.148Z,0
2017-06-29T01:50:57.105Z,0
2017-06-29T01:52:06.062Z,0
2017-06-29T01:53:15.013Z,0
2017-06-29T01:54:23.970Z,0
2017-06-29T01:55:33.227Z,0
2017-06-29T01:56:42.180Z,0
2017-06-29T01:57:51.456Z,0
2017-06-29T01:59:00.410Z,0
2017-06-29T02:00:09.369Z,0
2017-06-29T02:01:18.570Z,0
2017-06-29T02:02:27.522Z,0
2017-06-29T02:03:36.469Z,0
2017-06-29T02:04:45.420Z,0
2017-06-29T02:05:54.378Z,0
2017-06-29T02:07:03.580Z,0
2017-06-29T02:08:12.522Z,0
2017-06-29T02:09:21.479Z,0
2017-06-29T02:10:30.427Z,0
2017-06-29T02:11:39.375Z,0
2017-06-29T02:12:48.957Z,0
2017-06-29T02:13:57.906Z,0
2017-06-29T02:15:06.850Z,0
2017-06-29T02:16:15.804Z,0
2017-06-29T02:17:24.784Z,0
2017-06-29T02:18:34.124Z,0
2017-06-29T02:19:43.068Z,4
2017-06-29T02:20:52.351Z,4
2017-06-29T02:22:01.299Z,4
2017-06-29T02:23:10.246Z,0
2017-06-29T02:24:19.506Z,0
2017-06-29T02:25:28.453Z,4
2017-06-29T02:26:37.398Z,4
2017-06-29T02:27:46.448Z,4
2017-06-29T02:28:55.395Z,4
2017-06-29T02:30:04.593Z,4
2017-06-29T02:31:13.905Z,4
2017-06-29T02:32:22.861Z,8
2017-06-29T02:33:31.825Z,8
2017-06-29T02:34:40.783Z,4
2017-06-29T02:35:49.987Z,8
2017-06-29T02:36:58.936Z,8
2017-06-29T02:38:07.892Z,12
2017-06-29T02:39:16.846Z,8
2017-06-29T02:40:25.795Z,12
2017-06-29T02:41:34.999Z,12
2017-06-29T02:42:43.950Z,12
2017-06-29T02:43:52.899Z,16
2017-06-29T02:45:01.852Z,16
2017-06-29T02:46:10.822Z,16
2017-06-29T02:47:20.108Z,16
2017-06-29T02:48:29.059Z,16
2017-06-29T02:49:38.011Z,20
2017-06-29T02:50:46.962Z,20
2017-06-29T02:51:56.231Z,24
2017-06-29T02:53:05.420Z,28
2017-06-29T02:54:14.383Z,28
2017-06-29T02:55:23.365Z,32
2017-06-29T02:56:32.319Z,36
2017-06-29T02:57:41.269Z,36
2017-06-29T02:58:50.530Z,40
2017-06-29T02:59:59.474Z,40
2017-06-29T03:01:08.439Z,44
2017-06-29T03:02:17.388Z,52
2017-06-29T03:03:26.336Z,52
2017-06-29T03:04:35.534Z,56
2017-06-29T03:05:44.491Z,60
2017-06-29T03:06:53.435Z,64
2017-06-29T03:08:02.393Z,68
2017-06-29T03:09:11.356Z,72
2017-06-29T03:10:20.560Z,80
2017-06-29T03:11:29.508Z,80
2017-06-29T03:12:38.459Z,88
2017-06-29T03:13:47.417Z,92
2017-06-29T03:14:56.377Z,96
2017-06-29T03:16:05.585Z,100
2017-06-29T03:17:14.534Z,112
2017-06-29T03:18:23.502Z,116
2017-06-29T03:19:32.457Z,120
2017-06-29T03:20:41.414Z,128
2017-06-29T03:21:50.614Z,132
2017-06-29T03:22:59.569Z,140
2017-06-29T03:24:08.849Z,144
2017-06-29T03:25:17.793Z,148
2017-06-29T03:26:26.743Z,156
2017-06-29T03:27:35.942Z,160
2017-06-29T03:28:44.904Z,164
2017-06-29T03:29:53.851Z,172
2017-06-29T03:31:02.811Z,172
2017-06-29T03:32:11.761Z,184
2017-06-29T03:33:20.963Z,184
2017-06-29T03:34:29.918Z,192
2017-06-29T03:35:38.874Z,204
2017-06-29T03:36:47.827Z,216
2017-06-29T03:37:56.785Z,236
2017-06-29T03:39:05.983Z,244
2017-06-29T03:40:14.927Z,256
2017-06-29T03:41:23.884Z,268
2017-06-29T03:42:32.826Z,284
2017-06-29T03:43:41.779Z,304
2017-06-29T03:44:51.029Z,320
2017-06-29T03:45:59.976Z,320
2017-06-29T03:47:08.932Z,336
2017-06-29T03:48:18.221Z,352
2017-06-29T03:49:27.189Z,364
2017-06-29T03:50:36.761Z,384
2017-06-29T03:51:45.709Z,400
2017-06-29T03:52:54.662Z,412
2017-06-29T03:54:03.619Z,428
2017-06-29T03:55:12.568Z,440
2017-06-29T03:56:21.826Z,456
2017-06-29T03:57:30.776Z,488
2017-06-29T03:58:39.727Z,504
2017-06-29T03:59:48.684Z,500
2017-06-29T04:00:57.635Z,496
2017-06-29T04:02:06.834Z,460
2017-06-29T04:03:15.867Z,428
2017-06-29T04:04:24.826Z,424
2017-06-29T04:05:33.773Z,420
2017-06-29T04:06:42.726Z,472
2017-06-29T04:07:52.014Z,484
2017-06-29T04:09:00.960Z,472
2017-06-29T04:10:09.911Z,456
2017-06-29T04:11:18.867Z,416
2017-06-29T04:12:27.819Z,376
2017-06-29T04:13:37.019Z,384
2017-06-29T04:14:45.979Z,364
2017-06-29T04:15:54.948Z,388
2017-06-29T04:17:03.907Z,448
2017-06-29T04:18:12.862Z,544
2017-06-29T04:19:22.070Z,480
2017-06-29T04:20:31.026Z,432
2017-06-29T04:21:39.985Z,408
2017-06-29T04:22:48.942Z,384
2017-06-29T04:23:57.888Z,364
2017-06-29T04:25:07.098Z,344
2017-06-29T04:26:16.091Z,408
2017-06-29T04:27:25.031Z,380
2017-06-29T04:28:33.983Z,368
2017-06-29T04:29:42.938Z,408
2017-06-29T04:30:52.137Z,352
2017-06-29T04:32:01.096Z,368
2017-06-29T04:33:10.047Z,428
2017-06-29T04:34:19.048Z,488
2017-06-29T04:35:28.009Z,480
2017-06-29T04:36:37.203Z,468
2017-06-29T04:37:46.205Z,436
2017-06-29T04:38:55.154Z,476
2017-06-29T04:40:04.113Z,428
2017-06-29T04:41:13.070Z,352
2017-06-29T04:42:22.684Z,332
2017-06-29T04:43:31.638Z,328
2017-06-29T04:44:40.596Z,340
2017-06-29T04:45:49.551Z,340
2017-06-29T04:46:58.829Z,344
2017-06-29T04:48:08.045Z,352
2017-06-29T04:49:17.326Z,356
2017-06-29T04:50:26.296Z,376
2017-06-29T04:51:35.246Z,388
2017-06-29T04:52:44.201Z,404
2017-06-29T04:53:53.810Z,408
2017-06-29T04:55:03.403Z,408
2017-06-29T04:56:12.356Z,416
2017-06-29T04:57:21.349Z,416
2017-06-29T04:58:30.295Z,440
2017-06-29T04:59:39.499Z,468
2017-06-29T05:00:48.443Z,492
2017-06-29T05:01:57.393Z,504
2017-06-29T05:03:06.345Z,512
2017-06-29T05:04:15.303Z,592
2017-06-29T05:05:24.641Z,604
2017-06-29T05:06:33.598Z,688
2017-06-29T05:07:42.551Z,676
2017-06-29T05:08:51.512Z,840
2017-06-29T05:10:00.474Z,924
2017-06-29T05:11:09.676Z,932
2017-06-29T05:12:18.634Z,940
2017-06-29T05:13:27.588Z,916
2017-06-29T05:14:36.573Z,848
2017-06-29T05:15:45.533Z,776
2017-06-29T05:16:54.737Z,636
2017-06-29T05:18:03.693Z,648
2017-06-29T05:19:12.649Z,660
2017-06-29T05:20:21.923Z,644
2017-06-29T05:21:30.873Z,648
2017-06-29T05:22:40.073Z,648
2017-06-29T05:23:49.021Z,636
2017-06-29T05:24:57.972Z,692
2017-06-29T05:26:06.923Z,676
2017-06-29T05:27:15.874Z,596
2017-06-29T05:28:25.386Z,592
2017-06-29T05:29:34.774Z,624
2017-06-29T05:30:43.998Z,668
2017-06-29T05:31:53.095Z,792
2017-06-29T05:33:02.246Z,808
2017-06-29T05:34:11.809Z,928
2017-06-29T05:35:21.179Z,980
2017-06-29T05:36:30.139Z,1128
2017-06-29T05:37:39.093Z,1200
2017-06-29T05:38:48.224Z,1228
2017-06-29T05:39:57.482Z,1044
2017-06-29T05:41:06.814Z,1176
2017-06-29T05:42:15.953Z,1364
2017-06-29T05:43:25.545Z,1408
2017-06-29T05:44:34.711Z,1476
2017-06-29T05:45:44.317Z,1748
2017-06-29T05:46:53.455Z,1684
2017-06-29T05:48:02.806Z,1940
2017-06-29T05:49:12.461Z,2040
2017-06-29T05:50:21.712Z,2172
2017-06-29T05:51:31.164Z,2164
2017-06-29T05:52:40.502Z,1844
2017-06-29T05:53:49.462Z,1836
2017-06-29T05:54:58.595Z,1872
2017-06-29T05:56:07.619Z,1812
2017-06-29T05:57:16.984Z,1684
2017-06-29T05:58:26.001Z,1568
2017-06-29T05:59:35.186Z,1600
2017-06-29T06:00:44.374Z,1216
2017-06-29T06:01:53.411Z,1568
2017-06-29T06:03:02.795Z,1720
2017-06-29T06:04:12.263Z,1596
2017-06-29T06:05:21.358Z,1536
2017-06-29T06:06:30.461Z,1440
2017-06-29T06:07:39.537Z,1360
2017-06-29T06:08:49.479Z,1252
2017-06-29T06:09:58.718Z,1432
2017-06-29T06:11:08.105Z,1240
2017-06-29T06:12:17.453Z,1380
2017-06-29T06:13:26.769Z,1148
2017-06-29T06:14:36.155Z,1004
2017-06-29T06:15:45.915Z,1004
2017-06-29T06:16:54.967Z,1132
2017-06-29T06:18:03.920Z,1308
2017-06-29T06:19:12.963Z,1700
2017-06-29T06:20:22.167Z,1736
2017-06-29T06:21:31.178Z,2172
2017-06-29T06:22:40.364Z,1932
2017-06-29T06:23:49.748Z,1976
2017-06-29T06:24:58.830Z,2060
2017-06-29T06:26:08.891Z,1876
2017-06-29T06:27:18.295Z,1568
2017-06-29T06:28:27.241Z,1592
2017-06-29T06:29:36.431Z,1692
2017-06-29T06:30:45.393Z,2004
2017-06-29T06:31:54.608Z,1960
2017-06-29T06:33:03.560Z,1784
2017-06-29T06:34:12.834Z,2556
2017-06-29T06:35:21.792Z,2704
2017-06-29T06:36:30.738Z,2420
2017-06-29T06:37:39.934Z,2040
2017-06-29T06:38:48.891Z,2120
2017-06-29T06:39:57.845Z,2412
2017-06-29T06:41:06.802Z,2108
2017-06-29T06:42:15.753Z,2100
2017-06-29T06:43:25.008Z,2620
2017-06-29T06:44:34.056Z,2140
2017-06-29T06:45:43.014Z,2352
2017-06-29T06:46:51.972Z,2228
2017-06-29T06:48:00.920Z,1928
2017-06-29T06:49:10.261Z,2300
2017-06-29T06:50:19.303Z,1688
2017-06-29T06:51:28.261Z,1804
2017-06-29T06:52:37.485Z,1272
2017-06-29T06:53:46.441Z,1492
2017-06-29T06:54:55.769Z,1328
2017-06-29T06:56:04.724Z,1736
2017-06-29T06:57:13.674Z,1556
2017-06-29T06:58:22.626Z,1336
2017-06-29T06:59:31.579Z,1332
2017-06-29T07:00:40.779Z,1676
2017-06-29T07:01:49.733Z,1288
2017-06-29T07:02:58.690Z,988
2017-06-29T07:04:07.739Z,1240
2017-06-29T07:05:16.703Z,1712
2017-06-29T07:06:25.959Z,2032
2017-06-29T07:07:35.327Z,2320
2017-06-29T07:08:44.281Z,2704
2017-06-29T07:09:53.236Z,2876
2017-06-29T07:11:02.184Z,2500
2017-06-29T07:12:11.393Z,1708
2017-06-29T07:13:20.446Z,1696
2017-06-29T07:14:29.642Z,2540
2017-06-29T07:15:38.830Z,2332
2017-06-29T07:16:47.991Z,2204
2017-06-29T07:17:57.265Z,1612
2017-06-29T07:19:06.433Z,1892
2017-06-29T07:20:15.502Z,1956
2017-06-29T07:21:24.665Z,2680
2017-06-29T07:22:33.626Z,2692
2017-06-29T07:23:42.997Z,3196
2017-06-29T07:24:51.988Z,3000
2017-06-29T07:26:01.278Z,3740
2017-06-29T07:27:10.356Z,3456
2017-06-29T07:28:19.316Z,3836
2017-06-29T07:29:28.525Z,3116
2017-06-29T07:30:37.591Z,2656
2017-06-29T07:31:46.548Z,2376
2017-06-29T07:32:55.752Z,2528
2017-06-29T07:34:04.705Z,2220
2017-06-29T07:35:14.275Z,1744
2017-06-29T07:36:23.282Z,928
2017-06-29T07:37:32.554Z,936
2017-06-29T07:38:41.700Z,1116
2017-06-29T07:39:50.885Z,768
2017-06-29T07:41:00.192Z,640
2017-06-29T07:42:09.405Z,756
2017-06-29T07:43:18.442Z,816
2017-06-29T07:44:27.471Z,1288
2017-06-29T07:45:36.651Z,1252
2017-06-29T07:46:45.888Z,892
2017-06-29T07:47:55.206Z,936
2017-06-29T07:49:04.423Z,700
2017-06-29T07:50:13.492Z,436
2017-06-29T07:51:22.442Z,540
2017-06-29T07:52:31.971Z,388
2017-06-29T07:53:41.258Z,296
2017-06-29T07:54:50.446Z,324
2017-06-29T07:56:00.309Z,480
2017-06-29T07:57:09.718Z,636
2017-06-29T07:58:19.143Z,500
2017-06-29T07:59:28.094Z,400
2017-06-29T08:00:37.370Z,344
2017-06-29T08:01:46.326Z,308
2017-06-29T08:02:55.344Z,340
2017-06-29T08:04:04.602Z,468
2017-06-29T08:05:13.565Z,572
2017-06-29T08:06:22.520Z,460
2017-06-29T08:07:31.475Z,368
2017-06-29T08:08:40.723Z,376
2017-06-29T08:09:50.051Z,336
2017-06-29T08:10:59.187Z,248
2017-06-29T08:12:08.260Z,184
2017-06-29T08:13:17.212Z,164
2017-06-29T08:14:26.166Z,200
2017-06-29T08:15:35.544Z,320
2017-06-29T08:16:44.587Z,400
2017-06-29T08:17:53.545Z,444
2017-06-29T08:19:02.493Z,400
2017-06-29T08:20:11.460Z,284
2017-06-29T08:21:20.712Z,344
2017-06-29T08:22:29.671Z,372
2017-06-29T08:23:38.635Z,400
2017-06-29T08:24:47.583Z,464
2017-06-29T08:25:56.530Z,580
2017-06-29T08:27:06.499Z,564
2017-06-29T08:28:15.756Z,612
2017-06-29T08:29:24.697Z,696
2017-06-29T08:30:33.644Z,536
2017-06-29T08:31:42.604Z,492
2017-06-29T08:32:51.808Z,612
2017-06-29T08:34:00.762Z,648
2017-06-29T08:35:09.720Z,556
2017-06-29T08:36:18.675Z,452
2017-06-29T08:37:27.726Z,440
2017-06-29T08:38:36.927Z,400
2017-06-29T08:39:45.868Z,360
2017-06-29T08:40:54.950Z,360
2017-06-29T08:42:03.994Z,268
2017-06-29T08:43:12.935Z,296
2017-06-29T08:44:22.136Z,344
2017-06-29T08:45:31.086Z,440
2017-06-29T08:46:40.167Z,616
2017-06-29T08:47:49.204Z,692
2017-06-29T08:48:58.296Z,856
2017-06-29T08:50:07.535Z,556
2017-06-29T08:51:16.490Z,392
2017-06-29T08:52:25.443Z,348
2017-06-29T08:53:34.528Z,568
2017-06-29T08:54:43.547Z,600
2017-06-29T08:55:52.968Z,620
2017-06-29T08:57:02.090Z,572
2017-06-29T08:58:11.389Z,556
2017-06-29T08:59:20.527Z,668
2017-06-29T09:00:29.752Z,600
2017-06-29T09:01:39.109Z,644
2017-06-29T09:02:48.099Z,604
2017-06-29T09:03:57.159Z,504
2017-06-29T09:05:06.275Z,360
2017-06-29T09:06:15.229Z,264
2017-06-29T09:07:24.512Z,244
2017-06-29T09:08:33.468Z,212
2017-06-29T09:09:42.431Z,176
2017-06-29T09:10:51.941Z,160
2017-06-29T09:12:00.888Z,212
2017-06-29T09:13:10.090Z,244
2017-06-29T09:14:19.038Z,348
2017-06-29T09:15:27.992Z,452
2017-06-29T09:16:37.033Z,416
2017-06-29T09:17:45.993Z,388
2017-06-29T09:18:55.331Z,332
2017-06-29T09:20:04.284Z,404
2017-06-29T09:21:13.243Z,444
2017-06-29T09:22:22.193Z,424
2017-06-29T09:23:31.468Z,416
2017-06-29T09:24:40.722Z,392
2017-06-29T09:25:49.675Z,356
2017-06-29T09:26:58.629Z,312
2017-06-29T09:28:07.580Z,256
2017-06-29T09:29:16.536Z,232
2017-06-29T09:30:25.739Z,240
2017-06-29T09:31:34.696Z,228
2017-06-29T09:32:43.647Z,180
2017-06-29T09:33:52.599Z,188
2017-06-29T09:35:01.629Z,176
2017-06-29T09:36:10.832Z,184
2017-06-29T09:37:19.785Z,204
2017-06-29T09:38:28.739Z,264
2017-06-29T09:39:37.680Z,312
2017-06-29T09:40:46.716Z,296
2017-06-29T09:41:55.915Z,284
2017-06-29T09:43:04.870Z,208
2017-06-29T09:44:13.853Z,188
2017-06-29T09:45:22.802Z,220
2017-06-29T09:46:31.748Z,172
2017-06-29T09:47:40.950Z,176
2017-06-29T09:48:49.900Z,152
2017-06-29T09:49:58.844Z,176
2017-06-29T09:51:07.791Z,260
2017-06-29T09:52:16.736Z,292
2017-06-29T09:53:25.952Z,196
2017-06-29T09:54:34.900Z,140
2017-06-29T09:55:43.844Z,64
2017-06-29T09:56:52.796Z,44
2017-06-29T09:58:01.749Z,96
2017-06-29T09:59:11.386Z,96
2017-06-29T10:00:20.344Z,152
2017-06-29T10:01:29.290Z,228
2017-06-29T10:02:38.242Z,244
2017-06-29T10:03:47.285Z,272
2017-06-29T10:04:56.485Z,272
2017-06-29T10:06:05.438Z,248
2017-06-29T10:07:14.387Z,236
2017-06-29T10:08:23.331Z,184
2017-06-29T10:09:32.273Z,176
2017-06-29T10:10:41.469Z,152
2017-06-29T10:11:50.452Z,172
2017-06-29T10:12:59.405Z,248
2017-06-29T10:14:08.694Z,372
2017-06-29T10:15:17.721Z,456
2017-06-29T10:16:26.918Z,328
2017-06-29T10:17:35.908Z,220
2017-06-29T10:18:44.850Z,184
2017-06-29T10:19:53.805Z,224
2017-06-29T10:21:02.877Z,268
2017-06-29T10:22:12.267Z,268
2017-06-29T10:23:21.250Z,208
2017-06-29T10:24:30.198Z,252
2017-06-29T10:25:39.166Z,352
2017-06-29T10:26:48.193Z,228
2017-06-29T10:27:57.947Z,252
2017-06-29T10:29:06.994Z,248
2017-06-29T10:30:15.952Z,228
2017-06-29T10:31:24.899Z,184
2017-06-29T10:32:33.855Z,256
2017-06-29T10:33:43.140Z,172
2017-06-29T10:34:52.099Z,184
2017-06-29T10:36:01.057Z,252
2017-06-29T10:37:10.006Z,240
2017-06-29T10:38:18.955Z,248
2017-06-29T10:39:28.189Z,208
2017-06-29T10:40:37.144Z,228
2017-06-29T10:41:46.091Z,176
2017-06-29T10:42:55.030Z,212
2017-06-29T10:44:03.973Z,152
2017-06-29T10:45:13.225Z,120
2017-06-29T10:46:22.178Z,132
2017-06-29T10:47:31.123Z,144
2017-06-29T10:48:40.083Z,172
2017-06-29T10:49:49.047Z,224
2017-06-29T10:50:58.240Z,252
2017-06-29T10:52:07.269Z,284
2017-06-29T10:53:16.220Z,364
2017-06-29T10:54:25.164Z,404
2017-06-29T10:55:34.204Z,464
2017-06-29T10:56:43.549Z,444
2017-06-29T10:57:52.501Z,380
2017-06-29T10:59:01.767Z,232
2017-06-29T11:00:11.187Z,244
2017-06-29T11:01:20.212Z,312
2017-06-29T11:02:29.465Z,268
2017-06-29T11:03:38.463Z,280
2017-06-29T11:04:47.499Z,224
2017-06-29T11:05:56.772Z,240
2017-06-29T11:07:05.727Z,220
2017-06-29T11:08:15.362Z,252
2017-06-29T11:09:24.307Z,256
2017-06-29T11:10:33.321Z,264
2017-06-29T11:11:42.624Z,344
2017-06-29T11:12:51.848Z,384
2017-06-29T11:14:01.266Z,436
2017-06-29T11:15:10.323Z,384
2017-06-29T11:16:19.277Z,440
2017-06-29T11:17:28.344Z,588
2017-06-29T11:18:37.297Z,528
2017-06-29T11:19:46.663Z,452
2017-06-29T11:20:55.613Z,360
2017-06-29T11:22:04.691Z,352
2017-06-29T11:23:13.639Z,364
2017-06-29T11:24:22.585Z,184
2017-06-29T11:25:31.864Z,168
2017-06-29T11:26:40.932Z,208
2017-06-29T11:27:49.886Z,216
2017-06-29T11:28:58.835Z,224
2017-06-29T11:30:07.850Z,236
2017-06-29T11:31:17.608Z,192
2017-06-29T11:32:26.721Z,140
2017-06-29T11:33:35.803Z,152
2017-06-29T11:34:44.989Z,248
2017-06-29T11:35:54.114Z,252
2017-06-29T11:37:03.330Z,328
2017-06-29T11:38:12.333Z,540
2017-06-29T11:39:21.284Z,524
2017-06-29T11:40:30.285Z,596
2017-06-29T11:41:39.418Z,648
2017-06-29T11:42:48.773Z,712
2017-06-29T11:43:57.754Z,688
2017-06-29T11:45:06.694Z,596
2017-06-29T11:46:15.646Z,484
2017-06-29T11:47:24.597Z,392
2017-06-29T11:48:33.803Z,404
2017-06-29T11:49:42.747Z,380
2017-06-29T11:50:51.693Z,380
2017-06-29T11:52:00.636Z,316
2017-06-29T11:53:09.586Z,468
2017-06-29T11:54:18.787Z,468
2017-06-29T11:55:27.739Z,528
2017-06-29T11:56:36.692Z,520
2017-06-29T11:57:45.965Z,456
2017-06-29T11:58:54.910Z,484
2017-06-29T12:00:04.127Z,456
2017-06-29T12:01:13.402Z,436
2017-06-29T12:02:22.633Z,420
2017-06-29T12:03:31.647Z,400
2017-06-29T12:04:40.596Z,356
2017-06-29T12:05:50.136Z,348
2017-06-29T12:06:59.168Z,388
2017-06-29T12:08:08.123Z,460
2017-06-29T12:09:17.070Z,456
2017-06-29T12:10:26.289Z,440
2017-06-29T12:11:35.496Z,444
2017-06-29T12:12:44.448Z,456
2017-06-29T12:13:53.393Z,536
2017-06-29T12:15:02.365Z,524
2017-06-29T12:16:11.312Z,516
2017-06-29T12:17:20.599Z,544
2017-06-29T12:18:29.607Z,584
2017-06-29T12:19:38.556Z,640
2017-06-29T12:20:47.511Z,672
2017-06-29T12:21:56.535Z,736
2017-06-29T12:23:05.824Z,820
2017-06-29T12:24:14.777Z,860
2017-06-29T12:25:23.737Z,996
2017-06-29T12:26:32.720Z,1088
2017-06-29T12:27:41.683Z,1108
2017-06-29T12:28:50.940Z,1168
2017-06-29T12:29:59.960Z,1108
2017-06-29T12:31:09.075Z,940
2017-06-29T12:32:18.255Z,848
2017-06-29T12:33:27.280Z,704
2017-06-29T12:34:36.474Z,552
2017-06-29T12:35:45.551Z,356
2017-06-29T12:36:54.590Z,460
2017-06-29T12:38:03.573Z,412
2017-06-29T12:39:12.602Z,376
2017-06-29T12:40:22.157Z,344
2017-06-29T12:41:31.536Z,292
2017-06-29T12:42:40.598Z,256
2017-06-29T12:43:49.726Z,228
2017-06-29T12:44:58.729Z,240
2017-06-29T12:46:07.984Z,336
2017-06-29T12:47:16.926Z,420
2017-06-29T12:48:25.962Z,508
2017-06-29T12:49:35.006Z,560
2017-06-29T12:50:43.957Z,644
2017-06-29T12:51:53.209Z,904
2017-06-29T12:53:02.150Z,784
2017-06-29T12:54:11.109Z,724
2017-06-29T12:55:20.051Z,792
2017-06-29T12:56:28.999Z,712
2017-06-29T12:57:38.204Z,724
2017-06-29T12:58:47.149Z,652
2017-06-29T12:59:56.094Z,504
2017-06-29T13:01:05.042Z,488
2017-06-29T13:02:13.985Z,524
2017-06-29T13:03:23.180Z,560
2017-06-29T13:04:32.126Z,624
2017-06-29T13:05:41.068Z,672
2017-06-29T13:06:50.016Z,692
2017-06-29T13:07:58.961Z,592
2017-06-29T13:09:13.551Z,636
2017-06-29T13:10:33.887Z,680
2017-06-29T13:11:50.212Z,676
2017-06-29T13:13:11.570Z,792
2017-06-29T13:14:34.394Z,1008
2017-06-29T13:15:54.290Z,900
2017-06-29T13:17:12.231Z,956
2017-06-29T13:18:27.670Z,968
2017-06-29T13:19:36.897Z,1144
2017-06-29T13:20:45.872Z,1340
2017-06-29T13:21:54.841Z,1200
2017-06-29T13:23:03.824Z,1356
2017-06-29T13:24:12.796Z,1676
2017-06-29T13:25:22.018Z,1736
2017-06-29T13:26:30.995Z,1588
2017-06-29T13:27:40.055Z,2024
2017-06-29T13:28:49.024Z,2044
2017-06-29T13:29:57.994Z,2212
2017-06-29T13:31:07.232Z,2196
2017-06-29T13:32:16.199Z,1952
2017-06-29T13:33:25.175Z,2696
2017-06-29T13:34:34.141Z,2508
2017-06-29T13:35:43.138Z,3052
2017-06-29T13:36:52.425Z,2060
2017-06-29T13:38:01.390Z,2276
2017-06-29T13:39:10.537Z,2264
2017-06-29T13:40:19.513Z,2212
2017-06-29T13:41:28.486Z,2296
2017-06-29T13:42:37.706Z,2496
2017-06-29T13:43:46.679Z,1968
2017-06-29T13:44:55.641Z,2108
2017-06-29T13:46:04.615Z,2160
2017-06-29T13:47:13.589Z,1932
2017-06-29T13:48:22.817Z,1792
2017-06-29T13:49:31.830Z,1660
2017-06-29T13:50:40.869Z,1648
2017-06-29T13:51:49.894Z,1200
2017-06-29T13:52:58.870Z,1312
2017-06-29T13:54:08.098Z,1096
2017-06-29T13:55:17.076Z,1144
2017-06-29T13:56:26.142Z,1024
2017-06-29T13:57:35.140Z,1200
2017-06-29T13:58:44.114Z,1244
2017-06-29T13:59:53.336Z,1172
2017-06-29T14:01:02.312Z,784
2017-06-29T14:02:11.288Z,1096
2017-06-29T14:03:20.257Z,1264
2017-06-29T14:04:29.230Z,1108
2017-06-29T14:05:38.507Z,996
2017-06-29T14:06:47.475Z,968
2017-06-29T14:07:56.454Z,700
2017-06-29T14:09:05.426Z,872
2017-06-29T14:10:14.405Z,812
2017-06-29T14:11:23.628Z,760
2017-06-29T14:12:32.606Z,696
2017-06-29T14:13:41.582Z,660
2017-06-29T14:14:50.554Z,692
2017-06-29T14:15:59.527Z,580
2017-06-29T14:17:08.751Z,520
2017-06-29T14:18:17.725Z,568
2017-06-29T14:19:26.687Z,568
2017-06-29T14:20:35.668Z,496
2017-06-29T14:21:44.649Z,488
2017-06-29T14:22:53.964Z,472
2017-06-29T14:24:02.929Z,476
2017-06-29T14:25:11.907Z,456
2017-06-29T14:26:20.889Z,416
2017-06-29T14:27:29.870Z,432
2017-06-29T14:28:39.085Z,332
2017-06-29T14:29:48.063Z,368
2017-06-29T14:30:57.353Z,396
2017-06-29T14:32:06.662Z,376
2017-06-29T14:33:15.727Z,376
2017-06-29T14:34:24.952Z,416
2017-06-29T14:35:33.927Z,408
2017-06-29T14:36:42.902Z,376
2017-06-29T14:37:51.874Z,376
2017-06-29T14:39:00.843Z,360
2017-06-29T14:40:10.129Z,364
2017-06-29T14:41:19.098Z,376
2017-06-29T14:42:28.068Z,432
2017-06-29T14:43:37.033Z,392
2017-06-29T14:44:46.013Z,336
2017-06-29T14:45:55.226Z,288
2017-06-29T14:47:04.198Z,356
2017-06-29T14:48:13.168Z,452
2017-06-29T14:49:22.148Z,324
2017-06-29T14:50:31.116Z,428
2017-06-29T14:51:40.337Z,504
2017-06-29T14:52:49.418Z,436
2017-06-29T14:53:58.385Z,336
2017-06-29T14:55:07.357Z,344
2017-06-29T14:56:16.336Z,416
2017-06-29T14:57:25.606Z,360
2017-06-29T14:58:34.571Z,312
2017-06-29T14:59:43.545Z,292
2017-06-29T15:00:52.528Z,292
2017-06-29T15:02:01.504Z,220
2017-06-29T15:03:11.047Z,168
2017-06-29T15:04:20.024Z,156
2017-06-29T15:05:28.996Z,148
2017-06-29T15:06:38.094Z,92
2017-06-29T15:07:47.114Z,108
2017-06-29T15:08:56.382Z,104
2017-06-29T15:10:05.360Z,120
2017-06-29T15:11:14.356Z,128
2017-06-29T15:12:23.320Z,128
2017-06-29T15:13:32.303Z,120
2017-06-29T15:14:41.673Z,112
2017-06-29T15:15:50.638Z,164
2017-06-29T15:16:59.612Z,132
2017-06-29T15:18:08.595Z,132
2017-06-29T15:19:17.575Z,96
2017-06-29T15:20:26.789Z,112
2017-06-29T15:21:36.094Z,156
2017-06-29T15:22:45.064Z,248
2017-06-29T15:23:54.034Z,340
2017-06-29T15:25:02.998Z,436
2017-06-29T15:26:12.224Z,360
2017-06-29T15:27:21.198Z,324
2017-06-29T15:28:30.169Z,288
2017-06-29T15:29:39.145Z,200
2017-06-29T15:30:48.122Z,196
2017-06-29T15:31:57.340Z,188
2017-06-29T15:33:06.347Z,176
2017-06-29T15:34:15.314Z,160
2017-06-29T15:35:24.370Z,176
2017-06-29T15:36:33.347Z,216
2017-06-29T15:37:42.578Z,348
2017-06-29T15:38:51.547Z,244
2017-06-29T15:40:00.557Z,340
2017-06-29T15:41:09.508Z,332
2017-06-29T15:42:18.498Z,448
2017-06-29T15:43:27.698Z,400
2017-06-29T15:44:36.644Z,452
2017-06-29T15:45:45.678Z,380
2017-06-29T15:46:54.636Z,324
2017-06-29T15:48:03.576Z,232
2017-06-29T15:49:12.776Z,272
2017-06-29T15:50:21.734Z,208
2017-06-29T15:51:30.674Z,152
2017-06-29T15:52:39.622Z,132
2017-06-29T15:53:48.632Z,220
2017-06-29T15:54:58.099Z,204
2017-06-29T15:56:07.161Z,272
2017-06-29T15:57:16.311Z,360
2017-06-29T15:58:25.270Z,320